Agua Escondida, Argentina
Current Conditions -  °F | °C
As of 12:00 AM on Friday 28 Nov 2014 (Local Time) from SCIC Reporting Station
Clear Clear  
Wind Chill: 59°   Ceiling: Unl
Heat Index: 59°   Visibility: 6mi
Dew Point: 48°   Wind: 2mph
Humidity: 67%   Direction: 250°WSW
Pressure: 29.97"   Gusts: NA
Location:  35.64°S, 67.97°W
Report Text: SCIC 280300Z AUTO 25002KT 9999 NCD 15/09 Q1015
Loading
Personal Weather Stations






























Interactive Weather Map New forecast layout! Learn more

10-Day Weather Forecast

Advertisements
Track Severe Weather on mobile